Priwall — V2OX8 — position and weather

sailwx.info

Track history (hours):
 
Tides and Currents Weather Stations Pressure Air Temp Water Temp Dewpoint Dewpoint Depression Visibility Wind Speed Wind Dir Waves Ship Positions

Priwall

Last reported at 2016-Jun-30 11:33 UTC. Time now 2016-Jun-30 12:27 UTC.
Position N 53°55' E 006°59'.

Length 88 m; draft 5.5 m.

Type: Ship. MMSI: 304739000.

Date/timePositionNaut miles runAvg speedWind from/ knotsBaromVisibWave heightAir tempDewpointWater temp
2016-Jun-30 11:33N 53°55' E 006°59'9 9.2
2016-Jun-30 10:31N 53°58' E 007°14'9 8.9
2016-Jun-30 09:34N 53°60' E 007°28'8 8.4
2016-Jun-30 08:34N 54°02' E 007°42'8 8.2
2016-Jun-30 07:34N 54°02' E 007°56'9 7.9
2016-Jun-30 06:23N 54°01' E 008°12'7 8.4
2016-Jun-30 05:32N 53°60' E 008°24'8 8.1
2016-Jun-30 04:33N 53°58' E 008°37'8 8.4
2016-Jun-30 03:33N 53°51' E 008°46'1110.6
2016-Jun-30 02:33N 53°52' E 009°04'1110.9
2016-Jun-30 01:33N 53°50' E 009°21'1212.0
2016-Jun-30 00:33N 53°39' E 009°31'1111.3
2016-Jun-29 23:34N 53°33' E 009°47'8 8.1
2016-Jun-29 22:34N 53°29' E 009°58'0 0.3
2016-Jun-29 21:33N 53°28' E 009°59'0 0.0
2016-Jun-29 20:33N 53°28' E 009°59'0 0.0
2016-Jun-29 19:33N 53°28' E 009°59'0 0.0
2016-Jun-29 18:33N 53°28' E 009°59'0 0.0
2016-Jun-29 17:33N 53°28' E 009°59'0 0.0
2016-Jun-29 16:33N 53°28' E 009°59'0 0.0
2016-Jun-29 15:30N 53°28' E 009°59'0 0.0
2016-Jun-29 14:33N 53°28' E 009°59'0 0.0
2016-Jun-29 13:33N 53°28' E 009°59'0 0.0
2016-Jun-29 12:33N 53°28' E 009°59'0 0.0
2016-Jun-29 11:33N 53°28' E 009°59'0 0.0
2016-Jun-29 10:33N 53°28' E 009°59'0 0.0
2016-Jun-29 09:33N 53°28' E 009°59'0 0.0
2016-Jun-29 08:33N 53°28' E 009°59'0 0.0
2016-Jun-29 07:33N 53°28' E 009°59'0 0.0
2016-Jun-29 06:33N 53°28' E 009°59'0 0.0
2016-Jun-29 05:33N 53°28' E 009°59'0 0.0
2016-Jun-29 04:30N 53°28' E 009°59'0 0.0
2016-Jun-29 03:33N 53°28' E 009°59'0 0.0
2016-Jun-29 02:33N 53°28' E 009°59'0 0.0
2016-Jun-29 01:33N 53°28' E 009°59'0 0.0
2016-Jun-29 00:33N 53°28' E 009°59'0 0.0
2016-Jun-28 23:33N 53°28' E 009°59'0 0.0
2016-Jun-28 22:33N 53°28' E 009°59'0 0.0
2016-Jun-28 21:30N 53°28' E 009°59'0 0.0
2016-Jun-28 20:33N 53°28' E 009°59'0 0.0
2016-Jun-28 19:33N 53°28' E 009°59'0 0.0
2016-Jun-28 18:33N 53°28' E 009°59'0 0.0
2016-Jun-28 17:33N 53°28' E 009°59'0 0.0
2016-Jun-28 16:33N 53°28' E 009°59'0 0.0
2016-Jun-28 15:30N 53°28' E 009°59'0 0.0
2016-Jun-28 14:33N 53°28' E 009°59'0 0.0
2016-Jun-28 13:33N 53°28' E 009°59'0 0.0
2016-Jun-28 12:33N 53°28' E 009°59'0 0.0
2016-Jun-28 11:33N 53°28' E 009°59'0 0.0
2016-Jun-28 10:33N 53°28' E 009°59'0 0.0
2016-Jun-28 09:33N 53°28' E 009°59'0 0.0
2016-Jun-28 08:33N 53°28' E 009°59'0 0.0
2016-Jun-28 07:33N 53°28' E 009°59'0 0.0
2016-Jun-28 06:33N 53°28' E 009°59'0 0.0
2016-Jun-28 04:33N 53°28' E 009°59'0 0.0
2016-Jun-28 03:33N 53°28' E 009°59'0 0.0
2016-Jun-28 02:33N 53°28' E 009°59'0 0.0
2016-Jun-28 01:33N 53°28' E 009°59'0 0.0
2016-Jun-28 00:33N 53°28' E 009°59'0 0.0
2016-Jun-27 23:33N 53°28' E 009°59'0 0.0
2016-Jun-27 22:33N 53°28' E 009°59'0 0.0
2016-Jun-27 21:33N 53°28' E 009°59'0 0.2
2016-Jun-27 20:33N 53°29' E 009°59'8 7.8
2016-Jun-27 19:33N 53°33' E 009°48'1111.5
2016-Jun-27 18:33N 53°39' E 009°31'1212.4
2016-Jun-27 17:33N 53°50' E 009°21'1211.9
2016-Jun-27 16:33N 53°51' E 009°01'1211.7
2016-Jun-27 15:33N 53°54' E 008°42'1212.0
2016-Jun-27 14:33N 53°59' E 008°23'1212.0
2016-Jun-27 13:33N 53°58' E 008°03'1211.9
2016-Jun-27 12:33N 53°56' E 007°43'1211.9
2016-Jun-27 11:33N 53°53' E 007°24'1111.5
2016-Jun-27 10:33N 53°50' E 007°05'1110.8
2016-Jun-27 09:33N 53°48' E 006°47'1010.2
2016-Jun-27 08:33N 53°46' E 006°30'1010.0
2016-Jun-27 07:33N 53°43' E 006°14'10 9.9
2016-Jun-27 06:33N 53°40' E 005°58'10 9.9
2016-Jun-27 05:33N 53°37' E 005°42'10 9.7
2016-Jun-27 04:33N 53°34' E 005°27'1010.0
2016-Jun-27 03:33N 53°30' E 005°11'29 9.7
2016-Jun-27 00:33N 53°11' E 004°34'1311.7
2016-Jun-26 23:28N 53°00' E 004°23'1011.4
2016-Jun-26 22:33N 52°51' E 004°14'1511.2
2016-Jun-26 21:15N 52°42' E 003°56'811.4
2016-Jun-26 20:32N 52°37' E 003°45'7811.1
2016-Jun-26 13:33N 51°51' E 002°03'9 8.9
2016-Jun-26 12:33N 51°48' E 001°49'9 9.2
2016-Jun-26 11:33N 51°49' E 001°34'9 9.1
2016-Jun-26 10:33N 51°43' E 001°23'1010.3
2016-Jun-26 09:33N 51°35' E 001°11'1211.6
2016-Jun-26 08:33N 51°30' E 000°55'1313.1
2016-Jun-26 07:33N 51°30' E 000°34'1110.6
2016-Jun-26 06:34N 51°27' E 000°17'5 4.5
2016-Jun-26 05:32N 51°29' E 000°10'0 0.0
2016-Jun-26 04:32N 51°29' E 000°10'0 0.0
2016-Jun-26 03:32N 51°29' E 000°10'0 0.0
2016-Jun-26 02:32N 51°29' E 000°10'0 0.0
2016-Jun-26 01:32N 51°29' E 000°10'0 0.0
2016-Jun-26 00:32N 51°29' E 000°10'0 0.0
2016-Jun-25 23:32N 51°29' E 000°10'0 0.0
2016-Jun-25 22:32N 51°29' E 000°10'0 0.0
2016-Jun-25 21:32N 51°29' E 000°10'0 0.0
2016-Jun-25 20:32N 51°29' E 000°10'0 0.0
2016-Jun-25 19:32N 51°29' E 000°10'0 0.0
2016-Jun-25 18:32N 51°29' E 000°10'0 0.0
2016-Jun-25 17:32N 51°29' E 000°10'0 0.0
2016-Jun-25 16:32N 51°29' E 000°10'0 0.0
2016-Jun-25 15:32N 51°29' E 000°10'0 0.0
2016-Jun-25 14:32N 51°29' E 000°10'0 0.0
2016-Jun-25 13:32N 51°29' E 000°10'0 0.1
2016-Jun-25 12:34N 51°30' E 000°11'8 8.4
2016-Jun-25 11:33N 51°27' E 000°23'9 9.0
2016-Jun-25 10:33N 51°30' E 000°37'9 9.0
2016-Jun-25 09:33N 51°30' E 000°51'5 0.9
2016-Jun-25 04:19N 51°31' E 000°59'0 0.1
2016-Jun-25 03:22N 51°31' E 000°59'3 3.1
2016-Jun-25 02:34N 51°30' E 001°03'1211.5
2016-Jun-25 01:31N 51°29' E 001°22'1010.3
2016-Jun-25 00:34N 51°22' E 001°34'9 8.7
2016-Jun-24 23:33N 51°14' E 001°38'6 6.3
2016-Jun-24 22:34N 51°08' E 001°34'5 4.8
2016-Jun-24 21:34N 51°04' E 001°37'7 6.9
2016-Jun-24 20:33N 50°59' E 001°29'7 6.6
2016-Jun-24 19:28N 50°52' E 001°25'12 6.1
2016-Jun-24 17:28N 50°41' E 001°17'43 6.1
2016-Jun-24 10:26N 50°22' E 000°16'7 6.6
2016-Jun-24 09:23N 50°21' E 000°06'5 5.5
2016-Jun-24 08:29N 50°19' W 000°02'6 6.1
2016-Jun-24 07:33N 50°18' W 000°10'16 5.1
2016-Jun-24 04:29N 50°14' W 000°34'6 6.3
2016-Jun-24 03:33N 50°13' W 000°43'9 6.9
2016-Jun-24 02:15N 50°10' W 000°56'6 8.1
2016-Jun-24 01:32N 50°09' W 001°05'9 9.4
2016-Jun-24 00:32N 50°06' W 001°19'1110.9
2016-Jun-23 23:32N 50°03' W 001°35'6710.9
2016-Jun-23 17:24N 49°48' W 003°17'10 8.6
2016-Jun-23 16:13N 49°50' W 003°32'7 8.1
2016-Jun-23 15:22N 49°50' W 003°43'34 8.2
2016-Jun-23 11:15N 49°50' W 004°35'6 8.5
2016-Jun-23 10:31N 49°51' W 004°45'148 6.7
2016-Jun-22 12:23N 52°13' W 005°49'6 7.5
2016-Jun-22 11:31N 52°20' W 005°47'105 8.0
2016-Jun-21 22:22N 54°04' W 005°22'6 8.0
2016-Jun-21 21:34N 54°10' W 005°21'8 8.4
2016-Jun-21 20:34N 54°19' W 005°21'9 8.9
2016-Jun-21 19:33N 54°27' W 005°18'10 9.6
2016-Jun-21 18:33N 54°36' W 005°24'9 8.6
2016-Jun-21 17:34N 54°43' W 005°34'9 8.9
2016-Jun-21 16:34N 54°41' W 005°49'4 4.0
2016-Jun-21 15:26N 54°37' W 005°54'0 0.0
2016-Jun-21 14:32N 54°37' W 005°54'0 0.0
2016-Jun-21 13:08N 54°37' W 005°54'0 0.0
2016-Jun-21 11:20N 54°37' W 005°54'0 0.0
2016-Jun-21 10:26N 54°37' W 005°54'0 0.0
2016-Jun-21 09:08N 54°37' W 005°54'0 0.0
2016-Jun-21 08:29N 54°37' W 005°54'0 0.0
2016-Jun-21 07:32N 54°37' W 005°54'0 0.0
2016-Jun-21 06:20N 54°37' W 005°54'0 0.0
2016-Jun-21 04:32N 54°37' W 005°54'0 0.0
2016-Jun-21 03:29N 54°37' W 005°54'0 0.0
2016-Jun-21 02:32N 54°37' W 005°54'0 0.0
2016-Jun-21 01:32N 54°37' W 005°54'0 0.0
2016-Jun-21 00:26N 54°37' W 005°54'0 0.0
2016-Jun-20 23:32N 54°37' W 005°54'0 0.0
2016-Jun-20 22:32N 54°37' W 005°54'0 0.0
2016-Jun-20 20:32N 54°37' W 005°54'0 0.0
2016-Jun-20 19:32N 54°37' W 005°54'0 0.0
2016-Jun-20 18:29N 54°37' W 005°54'0 0.0
2016-Jun-20 17:32N 54°37' W 005°54'0 0.0
2016-Jun-20 16:32N 54°37' W 005°54'0 0.0
2016-Jun-20 15:29N 54°37' W 005°54'0 0.0
2016-Jun-20 14:32N 54°37' W 005°54'0 0.0
2016-Jun-20 13:32N 54°37' W 005°54'0 0.0
2016-Jun-20 12:29N 54°37' W 005°54'  
Track history (hours):
 
Tides and Currents Weather Stations Pressure Air Temp Water Temp Dewpoint Dewpoint Depression Visibility Wind Speed Wind Dir Waves Ship Positions

Priwall

Last reported at 2016-Jun-30 11:33 UTC. Time now 2016-Jun-30 12:27 UTC.
Position N 53°55' E 006°59'.

Length 88 m; draft 5.5 m.

Type: Ship. MMSI: 304739000.

Date/timePositionNaut miles runAvg speedWind from/ knotsBaromVisibWave heightAir tempDewpointWater temp
2016-Jun-30 11:33N 53°55' E 006°59'9 9.2
2016-Jun-30 10:31N 53°58' E 007°14'9 8.9
2016-Jun-30 09:34N 53°60' E 007°28'8 8.4
2016-Jun-30 08:34N 54°02' E 007°42'8 8.2
2016-Jun-30 07:34N 54°02' E 007°56'9 7.9
2016-Jun-30 06:23N 54°01' E 008°12'7 8.4
2016-Jun-30 05:32N 53°60' E 008°24'8 8.1
2016-Jun-30 04:33N 53°58' E 008°37'8 8.4
2016-Jun-30 03:33N 53°51' E 008°46'1110.6
2016-Jun-30 02:33N 53°52' E 009°04'1110.9
2016-Jun-30 01:33N 53°50' E 009°21'1212.0
2016-Jun-30 00:33N 53°39' E 009°31'1111.3
2016-Jun-29 23:34N 53°33' E 009°47'8 8.1
2016-Jun-29 22:34N 53°29' E 009°58'0 0.3
2016-Jun-29 21:33N 53°28' E 009°59'0 0.0
2016-Jun-29 20:33N 53°28' E 009°59'0 0.0
2016-Jun-29 19:33N 53°28' E 009°59'0 0.0
2016-Jun-29 18:33N 53°28' E 009°59'0 0.0
2016-Jun-29 17:33N 53°28' E 009°59'0 0.0
2016-Jun-29 16:33N 53°28' E 009°59'0 0.0
2016-Jun-29 15:30N 53°28' E 009°59'0 0.0
2016-Jun-29 14:33N 53°28' E 009°59'0 0.0
2016-Jun-29 13:33N 53°28' E 009°59'0 0.0
2016-Jun-29 12:33N 53°28' E 009°59'0 0.0
2016-Jun-29 11:33N 53°28' E 009°59'0 0.0
2016-Jun-29 10:33N 53°28' E 009°59'0 0.0
2016-Jun-29 09:33N 53°28' E 009°59'0 0.0
2016-Jun-29 08:33N 53°28' E 009°59'0 0.0
2016-Jun-29 07:33N 53°28' E 009°59'0 0.0
2016-Jun-29 06:33N 53°28' E 009°59'0 0.0
2016-Jun-29 05:33N 53°28' E 009°59'0 0.0
2016-Jun-29 04:30N 53°28' E 009°59'0 0.0
2016-Jun-29 03:33N 53°28' E 009°59'0 0.0
2016-Jun-29 02:33N 53°28' E 009°59'0 0.0
2016-Jun-29 01:33N 53°28' E 009°59'0 0.0
2016-Jun-29 00:33N 53°28' E 009°59'0 0.0
2016-Jun-28 23:33N 53°28' E 009°59'0 0.0
2016-Jun-28 22:33N 53°28' E 009°59'0 0.0
2016-Jun-28 21:30N 53°28' E 009°59'0 0.0
2016-Jun-28 20:33N 53°28' E 009°59'0 0.0
2016-Jun-28 19:33N 53°28' E 009°59'0 0.0
2016-Jun-28 18:33N 53°28' E 009°59'0 0.0
2016-Jun-28 17:33N 53°28' E 009°59'0 0.0
2016-Jun-28 16:33N 53°28' E 009°59'0 0.0
2016-Jun-28 15:30N 53°28' E 009°59'0 0.0
2016-Jun-28 14:33N 53°28' E 009°59'0 0.0
2016-Jun-28 13:33N 53°28' E 009°59'0 0.0
2016-Jun-28 12:33N 53°28' E 009°59'0 0.0
2016-Jun-28 11:33N 53°28' E 009°59'0 0.0
2016-Jun-28 10:33N 53°28' E 009°59'0 0.0
2016-Jun-28 09:33N 53°28' E 009°59'0 0.0
2016-Jun-28 08:33N 53°28' E 009°59'0 0.0
2016-Jun-28 07:33N 53°28' E 009°59'0 0.0
2016-Jun-28 06:33N 53°28' E 009°59'0 0.0
2016-Jun-28 04:33N 53°28' E 009°59'0 0.0
2016-Jun-28 03:33N 53°28' E 009°59'0 0.0
2016-Jun-28 02:33N 53°28' E 009°59'0 0.0
2016-Jun-28 01:33N 53°28' E 009°59'0 0.0
2016-Jun-28 00:33N 53°28' E 009°59'0 0.0
2016-Jun-27 23:33N 53°28' E 009°59'0 0.0
2016-Jun-27 22:33N 53°28' E 009°59'0 0.0
2016-Jun-27 21:33N 53°28' E 009°59'0 0.2
2016-Jun-27 20:33N 53°29' E 009°59'8 7.8
2016-Jun-27 19:33N 53°33' E 009°48'1111.5
2016-Jun-27 18:33N 53°39' E 009°31'1212.4
2016-Jun-27 17:33N 53°50' E 009°21'1211.9
2016-Jun-27 16:33N 53°51' E 009°01'1211.7
2016-Jun-27 15:33N 53°54' E 008°42'1212.0
2016-Jun-27 14:33N 53°59' E 008°23'1212.0
2016-Jun-27 13:33N 53°58' E 008°03'1211.9
2016-Jun-27 12:33N 53°56' E 007°43'1211.9
2016-Jun-27 11:33N 53°53' E 007°24'1111.5
2016-Jun-27 10:33N 53°50' E 007°05'1110.8
2016-Jun-27 09:33N 53°48' E 006°47'1010.2
2016-Jun-27 08:33N 53°46' E 006°30'1010.0
2016-Jun-27 07:33N 53°43' E 006°14'10 9.9
2016-Jun-27 06:33N 53°40' E 005°58'10 9.9
2016-Jun-27 05:33N 53°37' E 005°42'10 9.7
2016-Jun-27 04:33N 53°34' E 005°27'1010.0
2016-Jun-27 03:33N 53°30' E 005°11'29 9.7
2016-Jun-27 00:33N 53°11' E 004°34'1311.7
2016-Jun-26 23:28N 53°00' E 004°23'1011.4
2016-Jun-26 22:33N 52°51' E 004°14'1511.2
2016-Jun-26 21:15N 52°42' E 003°56'811.4
2016-Jun-26 20:32N 52°37' E 003°45'7811.1
2016-Jun-26 13:33N 51°51' E 002°03'9 8.9
2016-Jun-26 12:33N 51°48' E 001°49'9 9.2
2016-Jun-26 11:33N 51°49' E 001°34'9 9.1
2016-Jun-26 10:33N 51°43' E 001°23'1010.3
2016-Jun-26 09:33N 51°35' E 001°11'1211.6
2016-Jun-26 08:33N 51°30' E 000°55'1313.1
2016-Jun-26 07:33N 51°30' E 000°34'1110.6
2016-Jun-26 06:34N 51°27' E 000°17'5 4.5
2016-Jun-26 05:32N 51°29' E 000°10'0 0.0
2016-Jun-26 04:32N 51°29' E 000°10'0 0.0
2016-Jun-26 03:32N 51°29' E 000°10'0 0.0
2016-Jun-26 02:32N 51°29' E 000°10'0 0.0
2016-Jun-26 01:32N 51°29' E 000°10'0 0.0
2016-Jun-26 00:32N 51°29' E 000°10'0 0.0
2016-Jun-25 23:32N 51°29' E 000°10'0 0.0
2016-Jun-25 22:32N 51°29' E 000°10'0 0.0
2016-Jun-25 21:32N 51°29' E 000°10'0 0.0
2016-Jun-25 20:32N 51°29' E 000°10'0 0.0
2016-Jun-25 19:32N 51°29' E 000°10'0 0.0
2016-Jun-25 18:32N 51°29' E 000°10'0 0.0
2016-Jun-25 17:32N 51°29' E 000°10'0 0.0
2016-Jun-25 16:32N 51°29' E 000°10'0 0.0
2016-Jun-25 15:32N 51°29' E 000°10'0 0.0
2016-Jun-25 14:32N 51°29' E 000°10'0 0.0
2016-Jun-25 13:32N 51°29' E 000°10'0 0.1
2016-Jun-25 12:34N 51°30' E 000°11'8 8.4
2016-Jun-25 11:33N 51°27' E 000°23'9 9.0
2016-Jun-25 10:33N 51°30' E 000°37'9 9.0
2016-Jun-25 09:33N 51°30' E 000°51'5 0.9
2016-Jun-25 04:19N 51°31' E 000°59'0 0.1
2016-Jun-25 03:22N 51°31' E 000°59'3 3.1
2016-Jun-25 02:34N 51°30' E 001°03'1211.5
2016-Jun-25 01:31N 51°29' E 001°22'1010.3
2016-Jun-25 00:34N 51°22' E 001°34'9 8.7
2016-Jun-24 23:33N 51°14' E 001°38'6 6.3
2016-Jun-24 22:34N 51°08' E 001°34'5 4.8
2016-Jun-24 21:34N 51°04' E 001°37'7 6.9
2016-Jun-24 20:33N 50°59' E 001°29'7 6.6
2016-Jun-24 19:28N 50°52' E 001°25'12 6.1
2016-Jun-24 17:28N 50°41' E 001°17'43 6.1
2016-Jun-24 10:26N 50°22' E 000°16'7 6.6
2016-Jun-24 09:23N 50°21' E 000°06'5 5.5
2016-Jun-24 08:29N 50°19' W 000°02'6 6.1
2016-Jun-24 07:33N 50°18' W 000°10'16 5.1
2016-Jun-24 04:29N 50°14' W 000°34'6 6.3
2016-Jun-24 03:33N 50°13' W 000°43'9 6.9
2016-Jun-24 02:15N 50°10' W 000°56'6 8.1
2016-Jun-24 01:32N 50°09' W 001°05'9 9.4
2016-Jun-24 00:32N 50°06' W 001°19'1110.9
2016-Jun-23 23:32N 50°03' W 001°35'6710.9
2016-Jun-23 17:24N 49°48' W 003°17'10 8.6
2016-Jun-23 16:13N 49°50' W 003°32'7 8.1
2016-Jun-23 15:22N 49°50' W 003°43'34 8.2
2016-Jun-23 11:15N 49°50' W 004°35'6 8.5
2016-Jun-23 10:31N 49°51' W 004°45'148 6.7
2016-Jun-22 12:23N 52°13' W 005°49'6 7.5
2016-Jun-22 11:31N 52°20' W 005°47'105 8.0
2016-Jun-21 22:22N 54°04' W 005°22'6 8.0
2016-Jun-21 21:34N 54°10' W 005°21'8 8.4
2016-Jun-21 20:34N 54°19' W 005°21'9 8.9
2016-Jun-21 19:33N 54°27' W 005°18'10 9.6
2016-Jun-21 18:33N 54°36' W 005°24'9 8.6
2016-Jun-21 17:34N 54°43' W 005°34'9 8.9
2016-Jun-21 16:34N 54°41' W 005°49'4 4.0
2016-Jun-21 15:26N 54°37' W 005°54'0 0.0
2016-Jun-21 14:32N 54°37' W 005°54'0 0.0
2016-Jun-21 13:08N 54°37' W 005°54'0 0.0
2016-Jun-21 11:20N 54°37' W 005°54'0 0.0
2016-Jun-21 10:26N 54°37' W 005°54'0 0.0
2016-Jun-21 09:08N 54°37' W 005°54'0 0.0
2016-Jun-21 08:29N 54°37' W 005°54'0 0.0
2016-Jun-21 07:32N 54°37' W 005°54'0 0.0
2016-Jun-21 06:20N 54°37' W 005°54'0 0.0
2016-Jun-21 04:32N 54°37' W 005°54'0 0.0
2016-Jun-21 03:29N 54°37' W 005°54'0 0.0
2016-Jun-21 02:32N 54°37' W 005°54'0 0.0
2016-Jun-21 01:32N 54°37' W 005°54'0 0.0
2016-Jun-21 00:26N 54°37' W 005°54'0 0.0
2016-Jun-20 23:32N 54°37' W 005°54'0 0.0
2016-Jun-20 22:32N 54°37' W 005°54'0 0.0
2016-Jun-20 20:32N 54°37' W 005°54'0 0.0
2016-Jun-20 19:32N 54°37' W 005°54'0 0.0
2016-Jun-20 18:29N 54°37' W 005°54'0 0.0
2016-Jun-20 17:32N 54°37' W 005°54'0 0.0
2016-Jun-20 16:32N 54°37' W 005°54'0 0.0
2016-Jun-20 15:29N 54°37' W 005°54'0 0.0
2016-Jun-20 14:32N 54°37' W 005°54'0 0.0
2016-Jun-20 13:32N 54°37' W 005°54'0 0.0
2016-Jun-20 12:29N 54°37' W 005°54'  

Dump ship's entire track history